sensor_id;sensor_type;location;lat;lon;timestamp;P1;durP1;ratioP1;P2;durP2;ratioP2
12373;SDS011;6251;51.762;8.660;2023-07-20T01:02:11;13.80;;;11.73;;
12373;SDS011;6251;51.762;8.660;2023-07-20T01:12:12;19.15;;;14.68;;
12373;SDS011;6251;51.762;8.660;2023-07-20T02:53:53;16.50;;;13.23;;
12373;SDS011;6251;51.762;8.660;2023-07-20T04:05:36;52.25;;;27.08;;
12373;SDS011;6251;51.762;8.660;2023-07-20T04:15:37;44.40;;;26.00;;
12373;SDS011;6251;51.762;8.660;2023-07-20T04:25:39;47.95;;;25.45;;
12373;SDS011;6251;51.762;8.660;2023-07-20T04:36:01;48.85;;;23.95;;
12373;SDS011;6251;51.762;8.660;2023-07-20T04:46:00;55.25;;;24.70;;
12373;SDS011;6251;51.762;8.660;2023-07-20T04:56:01;39.60;;;23.95;;
12373;SDS011;6251;51.762;8.660;2023-07-20T05:06:01;39.63;;;23.90;;
12373;SDS011;6251;51.762;8.660;2023-07-20T05:16:02;41.60;;;23.50;;
12373;SDS011;6251;51.762;8.660;2023-07-20T05:26:21;41.30;;;24.08;;
12373;SDS011;6251;51.762;8.660;2023-07-20T05:36:22;32.45;;;18.25;;
12373;SDS011;6251;51.762;8.660;2023-07-20T05:46:23;22.02;;;13.60;;
12373;SDS011;6251;51.762;8.660;2023-07-20T05:56:24;19.37;;;12.70;;
12373;SDS011;6251;51.762;8.660;2023-07-20T06:06:25;26.50;;;13.93;;
12373;SDS011;6251;51.762;8.660;2023-07-20T06:16:25;17.92;;;13.57;;
12373;SDS011;6251;51.762;8.660;2023-07-20T06:26:26;26.92;;;14.80;;
12373;SDS011;6251;51.762;8.660;2023-07-20T06:36:26;22.20;;;12.23;;
12373;SDS011;6251;51.762;8.660;2023-07-20T06:46:27;11.65;;;8.32;;
12373;SDS011;6251;51.762;8.660;2023-07-20T06:56:28;9.73;;;8.43;;
12373;SDS011;6251;51.762;8.660;2023-07-20T07:06:28;10.45;;;9.35;;
12373;SDS011;6251;51.762;8.660;2023-07-20T07:16:29;7.68;;;6.85;;
12373;SDS011;6251;51.762;8.660;2023-07-20T07:26:30;9.57;;;6.70;;
12373;SDS011;6251;51.762;8.660;2023-07-20T07:36:31;7.32;;;6.70;;
12373;SDS011;6251;51.762;8.660;2023-07-20T07:46:31;3.47;;;3.17;;
12373;SDS011;6251;51.762;8.660;2023-07-20T07:56:32;3.15;;;2.90;;
12373;SDS011;6251;51.762;8.660;2023-07-20T08:16:36;2.92;;;2.67;;
12373;SDS011;6251;51.762;8.660;2023-07-20T08:26:37;3.27;;;3.00;;
12373;SDS011;6251;51.762;8.660;2023-07-20T08:36:38;4.07;;;2.87;;
12373;SDS011;6251;51.762;8.660;2023-07-20T08:46:38;2.00;;;1.90;;
12373;SDS011;6251;51.762;8.660;2023-07-20T08:56:40;5.22;;;2.05;;
12373;SDS011;6251;51.762;8.660;2023-07-20T09:06:41;1.30;;;1.30;;
12373;SDS011;6251;51.762;8.660;2023-07-20T09:16:49;1.42;;;1.42;;
12373;SDS011;6251;51.762;8.660;2023-07-20T09:26:50;2.15;;;1.40;;
12373;SDS011;6251;51.762;8.660;2023-07-20T09:36:51;1.20;;;1.20;;
12373;SDS011;6251;51.762;8.660;2023-07-20T09:46:52;1.58;;;1.35;;
12373;SDS011;6251;51.762;8.660;2023-07-20T09:56:54;1.23;;;1.23;;
12373;SDS011;6251;51.762;8.660;2023-07-20T10:06:55;1.10;;;1.10;;
12373;SDS011;6251;51.762;8.660;2023-07-20T10:17:00;1.67;;;1.60;;
12373;SDS011;6251;51.762;8.660;2023-07-20T10:27:02;1.12;;;1.12;;
12373;SDS011;6251;51.762;8.660;2023-07-20T10:37:04;1.02;;;1.02;;
12373;SDS011;6251;51.762;8.660;2023-07-20T10:47:11;1.20;;;1.10;;
12373;SDS011;6251;51.762;8.660;2023-07-20T10:57:23;1.17;;;0.90;;
12373;SDS011;6251;51.762;8.660;2023-07-20T11:07:37;3.37;;;1.30;;
12373;SDS011;6251;51.762;8.660;2023-07-20T11:17:38;1.12;;;1.05;;
12373;SDS011;6251;51.762;8.660;2023-07-20T11:27:43;1.02;;;1.02;;
12373;SDS011;6251;51.762;8.660;2023-07-20T11:37:46;0.93;;;0.93;;
12373;SDS011;6251;51.762;8.660;2023-07-20T11:47:46;1.42;;;1.20;;
12373;SDS011;6251;51.762;8.660;2023-07-20T12:08:17;2.05;;;1.30;;
12373;SDS011;6251;51.762;8.660;2023-07-20T12:18:18;1.67;;;1.58;;
12373;SDS011;6251;51.762;8.660;2023-07-20T12:28:22;1.90;;;1.90;;
12373;SDS011;6251;51.762;8.660;2023-07-20T12:38:23;2.10;;;2.00;;
12373;SDS011;6251;51.762;8.660;2023-07-20T12:48:23;2.60;;;2.60;;
12373;SDS011;6251;51.762;8.660;2023-07-20T12:58:24;2.67;;;2.58;;
12373;SDS011;6251;51.762;8.660;2023-07-20T13:08:25;2.50;;;2.40;;
12373;SDS011;6251;51.762;8.660;2023-07-20T13:18:26;2.00;;;2.00;;
12373;SDS011;6251;51.762;8.660;2023-07-20T13:28:27;1.55;;;1.55;;
12373;SDS011;6251;51.762;8.660;2023-07-20T13:38:28;2.30;;;1.30;;
12373;SDS011;6251;51.762;8.660;2023-07-20T13:48:28;0.80;;;0.80;;
12373;SDS011;6251;51.762;8.660;2023-07-20T13:58:29;1.00;;;1.00;;
12373;SDS011;6251;51.762;8.660;2023-07-20T14:08:29;0.80;;;0.80;;
12373;SDS011;6251;51.762;8.660;2023-07-20T14:18:30;0.80;;;0.80;;
12373;SDS011;6251;51.762;8.660;2023-07-20T14:28:31;0.77;;;0.77;;
12373;SDS011;6251;51.762;8.660;2023-07-20T14:38:33;0.90;;;0.90;;
12373;SDS011;6251;51.762;8.660;2023-07-20T14:48:34;0.95;;;0.73;;
12373;SDS011;6251;51.762;8.660;2023-07-20T14:58:35;0.93;;;0.90;;
12373;SDS011;6251;51.762;8.660;2023-07-20T15:08:35;1.23;;;0.70;;
12373;SDS011;6251;51.762;8.660;2023-07-20T15:18:36;0.80;;;0.77;;
12373;SDS011;6251;51.762;8.660;2023-07-20T15:28:37;0.70;;;0.70;;
12373;SDS011;6251;51.762;8.660;2023-07-20T15:38:37;0.77;;;0.77;;
12373;SDS011;6251;51.762;8.660;2023-07-20T15:48:38;0.70;;;0.70;;
12373;SDS011;6251;51.762;8.660;2023-07-20T15:58:39;1.12;;;0.70;;
12373;SDS011;6251;51.762;8.660;2023-07-20T16:08:39;0.93;;;0.93;;
12373;SDS011;6251;51.762;8.660;2023-07-20T16:18:40;0.80;;;0.80;;
12373;SDS011;6251;51.762;8.660;2023-07-20T16:28:41;0.90;;;0.90;;
12373;SDS011;6251;51.762;8.660;2023-07-20T16:38:43;0.90;;;0.90;;
12373;SDS011;6251;51.762;8.660;2023-07-20T16:48:44;0.90;;;0.90;;
12373;SDS011;6251;51.762;8.660;2023-07-20T16:58:44;1.20;;;1.00;;
12373;SDS011;6251;51.762;8.660;2023-07-20T17:08:45;1.17;;;1.17;;
12373;SDS011;6251;51.762;8.660;2023-07-20T17:18:46;3.70;;;3.50;;
12373;SDS011;6251;51.762;8.660;2023-07-20T17:28:46;1.00;;;1.00;;
12373;SDS011;6251;51.762;8.660;2023-07-20T17:38:47;0.80;;;0.80;;
12373;SDS011;6251;51.762;8.660;2023-07-20T17:48:48;0.80;;;0.80;;
12373;SDS011;6251;51.762;8.660;2023-07-20T17:58:48;1.52;;;0.95;;
12373;SDS011;6251;51.762;8.660;2023-07-20T18:08:49;1.30;;;1.30;;
12373;SDS011;6251;51.762;8.660;2023-07-20T18:18:50;0.82;;;0.82;;
12373;SDS011;6251;51.762;8.660;2023-07-20T18:28:51;0.80;;;0.80;;
12373;SDS011;6251;51.762;8.660;2023-07-20T18:38:53;1.10;;;1.10;;
12373;SDS011;6251;51.762;8.660;2023-07-20T18:48:53;1.15;;;1.12;;
12373;SDS011;6251;51.762;8.660;2023-07-20T18:58:54;0.77;;;0.77;;
12373;SDS011;6251;51.762;8.660;2023-07-20T19:08:55;0.90;;;0.90;;
12373;SDS011;6251;51.762;8.660;2023-07-20T19:18:55;1.10;;;1.10;;
12373;SDS011;6251;51.762;8.660;2023-07-20T19:28:56;1.75;;;0.90;;
12373;SDS011;6251;51.762;8.660;2023-07-20T19:38:56;1.02;;;1.02;;
12373;SDS011;6251;51.762;8.660;2023-07-20T19:48:59;1.50;;;1.40;;
12373;SDS011;6251;51.762;8.660;2023-07-20T19:58:59;1.33;;;1.23;;
12373;SDS011;6251;51.762;8.660;2023-07-20T20:09:00;1.27;;;1.27;;
12373;SDS011;6251;51.762;8.660;2023-07-20T20:19:01;1.37;;;1.37;;
12373;SDS011;6251;51.762;8.660;2023-07-20T20:29:03;1.52;;;1.45;;
12373;SDS011;6251;51.762;8.660;2023-07-20T20:39:03;1.40;;;1.40;;
12373;SDS011;6251;51.762;8.660;2023-07-20T20:49:04;1.50;;;1.40;;
12373;SDS011;6251;51.762;8.660;2023-07-20T20:59:04;1.40;;;1.40;;
12373;SDS011;6251;51.762;8.660;2023-07-20T23:00:59;3.25;;;2.50;;
12373;SDS011;6251;51.762;8.660;2023-07-20T23:11:00;2.60;;;2.50;;
